Time;durP1;ratioP1;P1;durP2;ratioP2;P2;SDS_P1;SDS_P2;PMS_P1;PMS_P2;Temp;Humidity;BMP_temperature;BMP_pressure;BME280_temperature;BME280_humidity;BME280_pressure;Samples;Min_cycle;Max_cycle;Signal;HPM_P1;HPM_P2
2022/12/12 00:01:56;;;;;;;28.73;14.80;;;;;;;-6.10;100.00;97869.72;4218542;27;20039;-76
2022/12/12 00:03:57;;;;;;;34.20;14.57;;;;;;;-6.08;100.00;97874.81;4219231;27;20047;-76
2022/12/12 00:05:57;;;;;;;31.27;14.20;;;;;;;-6.07;100.00;97876.41;4218728;27;20035;-76
2022/12/12 00:07:58;;;;;;;32.15;14.68;;;;;;;-6.01;100.00;97880.66;4218354;28;20214;-75
2022/12/12 00:09:58;;;;;;;30.70;14.20;;;;;;;-6.07;100.00;97871.81;4218368;27;20223;-76
2022/12/12 00:11:58;;;;;;;29.50;14.27;;;;;;;-6.08;100.00;97874.81;4218185;27;20031;-76
2022/12/12 00:13:59;;;;;;;32.33;13.75;;;;;;;-6.08;100.00;97877.50;4218032;28;20035;-75
2022/12/12 00:15:59;;;;;;;29.83;14.27;;;;;;;-6.09;100.00;97875.91;4207612;28;20396;-75
2022/12/12 00:17:59;;;;;;;32.78;14.35;;;;;;;-6.07;100.00;97885.28;4217428;28;20650;-76
2022/12/12 00:20:00;;;;;;;28.48;13.70;;;;;;;-6.09;100.00;97886.69;4217932;28;20067;-75
2022/12/12 00:22:00;;;;;;;29.45;14.10;;;;;;;-6.10;100.00;97885.06;4219346;28;20151;-76
2022/12/12 00:24:01;;;;;;;28.23;14.20;;;;;;;-6.10;100.00;97885.06;4217920;28;20040;-76
2022/12/12 00:26:05;;;;;;;27.05;13.65;;;;;;;-6.11;100.00;97884.28;4216353;28;20453;-75
2022/12/12 00:28:05;;;;;;;30.27;12.52;;;;;;;-6.10;100.00;97879.69;4217946;27;20362;-75
2022/12/12 00:30:06;;;;;;;33.15;13.85;;;;;;;-6.07;100.00;97877.22;4218385;28;20047;-76
2022/12/12 00:32:06;;;;;;;30.50;13.88;;;;;;;-6.04;100.00;97875.84;4218330;27;20108;-76
2022/12/12 00:34:06;;;;;;;30.70;13.43;;;;;;;-6.03;100.00;97880.16;4220705;27;20043;-75
2022/12/12 00:36:07;;;;;;;30.23;13.20;;;;;;;-6.00;100.00;97869.59;4221410;27;20043;-76
2022/12/12 00:38:08;;;;;;;31.15;13.18;;;;;;;-5.92;100.00;97880.84;4220838;28;20035;-75
2022/12/12 00:40:09;;;;;;;29.40;13.43;;;;;;;-5.87;100.00;97889.66;4219785;27;20012;-76
2022/12/12 00:42:09;;;;;;;29.60;14.15;;;;;;;-5.81;100.00;97880.41;4221561;28;20035;-76
2022/12/12 00:44:10;;;;;;;26.35;13.88;;;;;;;-5.80;100.00;97883.91;4220313;28;20479;-76
2022/12/12 00:46:15;;;;;;;25.88;12.88;;;;;;;-5.81;100.00;97891.19;4220829;28;20111;-75
2022/12/12 00:48:16;;;;;;;25.58;12.30;;;;;;;-5.81;100.00;97888.50;4219338;28;20114;-75
2022/12/12 00:50:17;;;;;;;28.75;13.52;;;;;;;-5.79;100.00;97896.28;4217189;28;20086;-76
2022/12/12 00:52:17;;;;;;;28.70;13.23;;;;;;;-5.77;100.00;97894.94;4219852;28;20134;-76
2022/12/12 00:54:17;;;;;;;27.98;13.95;;;;;;;-5.72;100.00;97900.25;4218232;28;20036;-76
2022/12/12 00:56:20;;;;;;;27.00;12.95;;;;;;;-5.72;100.00;97904.84;4220018;27;20066;-76
2022/12/12 00:58:20;;;;;;;27.15;12.80;;;;;;;-5.73;100.00;97904.03;4220054;27;20071;-75
2022/12/12 01:00:21;;;;;;;29.77;13.45;;;;;;;-5.72;100.00;97899.44;4220063;28;20048;-75
2022/12/12 01:02:21;;;;;;;26.27;12.15;;;;;;;-5.75;100.00;97903.53;4219679;27;20087;-76
2022/12/12 01:04:22;;;;;;;27.50;12.02;;;;;;;-5.75;100.00;97900.03;4220014;27;20105;-76
2022/12/12 01:06:22;;;;;;;32.65;14.25;;;;;;;-5.80;100.00;97898.19;4220884;28;20044;-76
2022/12/12 01:08:22;;;;;;;29.90;13.93;;;;;;;-5.80;100.00;97903.56;4218741;27;20052;-76
2022/12/12 01:10:23;;;;;;;26.48;12.32;;;;;;;-5.80;100.00;97905.47;4217328;28;20035;-76
2022/12/12 01:12:23;;;;;;;30.75;13.02;;;;;;;-5.76;100.00;97907.31;4218712;27;20438;-75
2022/12/12 01:14:24;;;;;;;23.80;13.02;;;;;;;-5.67;100.00;97907.47;4220085;28;20506;-76
2022/12/12 01:16:24;;;;;;;27.92;13.18;;;;;;;-5.63;100.00;97913.09;4219412;27;20051;-75
2022/12/12 01:18:25;;;;;;;26.90;12.88;;;;;;;-5.62;100.00;97912.03;4219005;27;20112;-76
2022/12/12 01:20:27;;;;;;;25.27;12.45;;;;;;;-5.61;100.00;97906.34;4218334;28;20620;-76
2022/12/12 01:22:27;;;;;;;31.17;13.95;;;;;;;-5.61;100.00;97913.63;4208826;28;20047;-75
2022/12/12 01:24:28;;;;;;;23.20;11.55;;;;;;;-5.63;100.00;97911.19;4221189;27;20543;-75
2022/12/12 01:26:28;;;;;;;25.63;12.18;;;;;;;-5.66;100.00;97909.88;4220012;28;20518;-75
2022/12/12 01:28:30;;;;;;;23.27;11.00;;;;;;;-5.67;100.00;97912.88;4219748;27;20083;-75
2022/12/12 01:30:30;;;;;;;27.08;12.35;;;;;;;-5.73;100.00;97908.63;4217530;27;20047;-76
2022/12/12 01:32:30;;;;;;;25.13;11.70;;;;;;;-5.76;100.00;97914.59;4218061;28;20056;-75
2022/12/12 01:34:31;;;;;;;26.00;12.13;;;;;;;-5.82;100.00;97913.84;4209029;28;20097;-76
2022/12/12 01:36:31;;;;;;;19.85;10.90;;;;;;;-5.83;100.00;97916.81;4217195;28;20108;-76
2022/12/12 01:38:31;;;;;;;25.40;12.00;;;;;;;-5.86;100.00;97914.72;4218597;28;20043;-75
2022/12/12 01:40:32;;;;;;;22.60;11.70;;;;;;;-5.84;100.00;97918.72;4219676;27;20058;-76
2022/12/12 01:42:32;;;;;;;25.55;11.63;;;;;;;-5.83;100.00;97914.91;4217970;28;20130;-76
2022/12/12 01:44:43;;;;;;;20.58;10.43;;;;;;;-5.86;100.00;97917.41;4217123;28;20173;-76
2022/12/12 01:46:44;;;;;;;19.95;10.60;;;;;;;-5.83;100.00;97920.31;4218452;27;20035;-76
2022/12/12 01:49:18;;;;;;;21.33;10.35;;;;;;;-5.88;100.00;97922.25;4219294;28;20194;-76
2022/12/12 01:51:22;;;;;;;18.88;9.55;;;;;;;-5.93;100.00;97919.66;4218390;28;20047;-76
2022/12/12 01:53:25;;;;;;;16.23;9.15;;;;;;;-5.96;100.00;97918.31;4217886;27;20515;-76
2022/12/12 01:55:25;;;;;;;15.85;8.88;;;;;;;-5.98;100.00;97925.88;4219802;27;20092;-76
2022/12/12 01:57:36;;;;;;;20.08;8.77;;;;;;;-6.03;100.00;97917.88;4219279;28;20040;-75
2022/12/12 01:59:38;;;;;;;17.85;9.43;;;;;;;-6.05;100.00;97923.50;4219070;28;20570;-75
2022/12/12 02:01:39;;;;;;;13.60;8.30;;;;;;;-6.13;100.00;97918.75;4217147;28;20044;-76
2022/12/12 02:03:41;;;;;;;17.35;8.65;;;;;;;-6.19;100.00;97927.97;4218229;27;20123;-76
2022/12/12 02:05:52;;;;;;;15.10;7.93;;;;;;;-6.27;100.00;97913.22;4219026;28;20767;-76
2022/12/12 02:07:53;;;;;;;16.52;8.35;;;;;;;-6.30;100.00;97916.47;4218702;28;20060;-75
2022/12/12 02:09:53;;;;;;;15.63;7.68;;;;;;;-6.35;100.00;97919.22;4218084;28;20071;-75
2022/12/12 02:11:56;;;;;;;18.27;8.95;;;;;;;-6.40;100.00;97919.25;4219488;27;20141;-75
2022/12/12 02:13:57;;;;;;;18.33;8.05;;;;;;;-6.47;100.00;97918.75;4218773;28;20291;-76
2022/12/12 02:16:32;;;;;;;21.65;9.27;;;;;;;-6.53;100.00;97920.69;4218534;28;20084;-75
2022/12/12 02:18:53;;;;;;;17.25;7.22;;;;;;;-6.61;100.00;97918.63;4217292;27;20119;-76
2022/12/12 02:21:14;;;;;;;16.77;7.78;;;;;;;-6.68;100.00;97922.69;4217712;27;20471;-75
2022/12/12 02:23:48;;;;;;;16.02;8.02;;;;;;;-6.71;100.00;97917.84;4219391;28;20047;-76
2022/12/12 02:25:57;;;;;;;14.80;8.15;;;;;;;-6.75;100.00;97920.31;4218277;28;20043;-75
2022/12/12 02:28:26;;;;;;;14.57;7.43;;;;;;;-6.77;100.00;97917.09;4217914;28;20050;-75
2022/12/12 02:30:34;;;;;;;17.88;8.57;;;;;;;-6.80;100.00;97933.78;4217694;28;20151;-75
2022/12/12 02:32:42;;;;;;;14.95;7.38;;;;;;;-6.81;100.00;97927.59;4218869;28;20044;-75
2022/12/12 02:34:52;;;;;;;19.98;8.73;;;;;;;-6.82;100.00;97938.66;4219235;28;20035;-75
2022/12/12 02:36:59;;;;;;;19.90;9.13;;;;;;;-6.85;100.00;97937.34;4218948;28;20059;-75
2022/12/12 02:39:21;;;;;;;16.83;7.53;;;;;;;-6.83;100.00;97945.13;4218020;28;20097;-75
2022/12/12 02:41:28;;;;;;;18.42;8.50;;;;;;;-6.88;100.00;97942.44;4218513;27;20378;-75
2022/12/12 02:43:35;;;;;;;19.20;7.53;;;;;;;-6.80;100.00;97934.59;4221753;27;20396;-76
2022/12/12 02:45:45;;;;;;;15.32;7.55;;;;;;;-6.71;100.00;97942.06;4221511;28;20140;-76
2022/12/12 02:48:02;;;;;;;15.65;7.88;;;;;;;-6.66;100.00;97944.75;4220871;28;20071;-76
2022/12/12 02:50:10;;;;;;;17.45;8.73;;;;;;;-6.65;100.00;97944.47;4221439;27;20104;-75
2022/12/12 02:52:11;;;;;;;18.38;8.55;;;;;;;-6.69;100.00;97942.63;4222735;28;20043;-76
2022/12/12 02:54:14;;;;;;;18.55;7.90;;;;;;;-6.77;100.00;97940.53;4221317;27;20407;-75
2022/12/12 02:56:50;;;;;;;17.08;7.88;;;;;;;-6.81;100.00;97941.06;4220601;27;20062;-75
2022/12/12 02:58:51;;;;;;;14.15;6.70;;;;;;;-6.88;100.00;97937.88;4222846;27;20086;-75
2022/12/12 03:01:10;;;;;;;22.73;8.93;;;;;;;-6.86;100.00;97935.72;4220629;27;20087;-75
2022/12/12 03:09:07;;;;;;;14.80;7.13;;;;;;;-7.00;100.00;97942.00;4220656;27;20054;-76
2022/12/12 03:11:13;;;;;;;14.75;7.72;;;;;;;-7.12;100.00;97937.72;4222067;28;20498;-75
2022/12/12 03:13:25;;;;;;;13.23;7.13;;;;;;;-7.20;100.00;97937.50;4221636;28;20497;-76
2022/12/12 03:15:35;;;;;;;16.98;7.70;;;;;;;-7.25;100.00;97937.53;4221765;27;20528;-76
2022/12/12 03:17:40;;;;;;;17.73;7.55;;;;;;;-7.32;100.00;97945.91;4220469;27;20483;-75
2022/12/12 03:19:53;;;;;;;18.70;8.98;;;;;;;-7.39;100.00;97938.13;4220953;28;20421;-75
2022/12/12 03:22:16;;;;;;;18.55;8.68;;;;;;;-7.41;100.00;97951.03;4221076;27;20067;-75
2022/12/12 03:24:19;;;;;;;;;;;;;;;-7.45;100.00;97943.78;4220019;28;20047;-75
2022/12/12 03:26:28;;;;;;;18.48;7.28;;;;;;;-7.49;100.00;97940.84;4221005;28;19922;-75
2022/12/12 03:28:36;;;;;;;14.15;6.88;;;;;;;-7.47;100.00;97941.38;4221713;28;20039;-76
2022/12/12 03:30:41;;;;;;;17.42;7.35;;;;;;;-7.49;100.00;97940.84;4222197;28;20042;-75
2022/12/12 03:32:52;;;;;;;17.08;7.55;;;;;;;-7.51;100.00;97945.69;4220081;27;20047;-76
2022/12/12 03:35:00;;;;;;;21.10;8.35;;;;;;;-7.56;100.00;97945.72;4221110;27;20044;-75
2022/12/12 03:37:30;;;;;;;20.50;8.93;;;;;;;-7.58;100.00;97950.56;4217481;27;20036;-76
2022/12/12 03:39:43;;;;;;;19.42;8.73;;;;;;;-7.63;100.00;97947.88;4220706;27;20040;-76
2022/12/12 03:41:50;;;;;;;;;;;;;;;-7.63;100.00;97951.38;4222688;27;20275;-76
2022/12/12 03:43:59;;;;;;;14.82;6.72;;;;;;;-7.70;100.00;97947.34;4221172;27;20328;-76
2022/12/12 03:46:12;;;;;;;18.50;7.80;;;;;;;-7.72;100.00;97946.81;4219941;27;20040;-75
2022/12/12 03:48:16;;;;;;;18.35;7.35;;;;;;;-7.73;100.00;97939.84;4219648;27;20044;-75
2022/12/12 03:50:32;;;;;;;17.67;8.25;;;;;;;-7.75;100.00;97942.81;4220740;27;20279;-75
2022/12/12 03:52:37;;;;;;;16.92;7.28;;;;;;;-7.78;100.00;97946.03;4221149;27;20055;-76
2022/12/12 03:54:51;;;;;;;15.13;7.18;;;;;;;-7.79;100.00;97951.69;4217888;28;20036;-75
2022/12/12 03:57:10;;;;;;;17.63;8.18;;;;;;;-7.83;100.00;97951.44;4219272;27;20633;-76
2022/12/12 03:59:17;;;;;;;14.48;7.03;;;;;;;-7.85;100.00;97953.59;4219565;27;20383;-76
2022/12/12 04:01:22;;;;;;;14.77;7.32;;;;;;;-7.89;100.00;97943.66;4218375;28;20048;-76
2022/12/12 04:03:50;;;;;;;19.77;8.52;;;;;;;-7.89;100.00;97944.44;4216810;28;20196;-76
2022/12/12 04:08:15;;;;;;;19.60;8.30;;;;;;;-7.78;100.00;97945.22;4219967;28;20057;-75
2022/12/12 04:13:04;;;;;;;15.13;7.55;;;;;;;-7.83;100.00;97939.88;4148922;28;20045;-75
2022/12/12 04:15:55;;;;;;;16.58;6.95;;;;;;;-7.88;100.00;97943.38;4146987;28;20077;-76
2022/12/12 04:18:33;;;;;;;14.00;6.93;;;;;;;-7.87;100.00;97952.22;4127223;28;20051;-75
2022/12/12 04:23:34;;;;;;;15.52;7.35;;;;;;;-7.89;100.00;97962.44;4219556;28;20063;-76
2022/12/12 04:28:11;;;;;;;15.68;6.97;;;;;;;-7.71;100.00;97957.28;4219547;28;20051;-76
2022/12/12 04:30:14;;;;;;;19.58;7.88;;;;;;;-7.67;100.00;97952.19;4220322;28;20448;-76
2022/12/12 04:32:26;;;;;;;18.98;7.78;;;;;;;-7.70;100.00;97960.78;4219688;27;20030;-75
2022/12/12 04:34:35;;;;;;;15.63;7.37;;;;;;;-7.71;100.00;97959.19;4218265;28;20050;-75
2022/12/12 04:36:37;;;;;;;14.38;7.25;;;;;;;-7.75;100.00;97958.13;4217986;27;20408;-75
2022/12/12 04:38:38;;;;;;;17.40;7.27;;;;;;;-7.72;100.00;97961.06;4219568;28;20138;-75
2022/12/12 04:40:42;;;;;;;17.55;7.22;;;;;;;-7.70;100.00;97966.97;4220244;27;20760;-75
2022/12/12 04:42:49;;;;;;;16.05;7.20;;;;;;;-7.79;100.00;97957.84;4219551;27;20043;-76
2022/12/12 04:44:53;;;;;;;15.55;8.00;;;;;;;-7.94;100.00;97958.72;4215724;27;20093;-75
2022/12/12 04:46:56;;;;;;;16.95;7.07;;;;;;;-8.00;100.00;97965.16;4220329;27;20465;-75
2022/12/12 04:49:02;;;;;;;17.42;7.43;;;;;;;-7.99;100.00;97960.59;4220621;28;20117;-75
2022/12/12 04:51:05;;;;;;;18.77;8.55;;;;;;;-7.83;100.00;97964.06;4220020;28;20457;-75
2022/12/12 04:53:08;;;;;;;;;;;;;;;-7.79;100.00;97963.22;4218927;28;20109;-75
2022/12/12 04:55:14;;;;;;;13.88;6.45;;;;;;;-7.81;100.00;97968.06;4219776;27;19922;-75
2022/12/12 04:57:28;;;;;;;15.20;7.15;;;;;;;-7.76;100.00;97964.59;4219293;27;20048;-75
2022/12/12 04:59:28;;;;;;;15.48;6.90;;;;;;;-7.73;100.00;97964.81;4218793;27;20445;-75
2022/12/12 05:01:52;;;;;;;18.95;7.65;;;;;;;-7.76;100.00;97970.75;4219538;28;20071;-75
2022/12/12 05:04:02;;;;;;;13.88;7.03;;;;;;;-7.73;100.00;97970.19;4218629;27;20052;-75
2022/12/12 05:06:10;;;;;;;15.70;7.18;;;;;;;-7.81;100.00;97973.44;4219116;28;20044;-75
2022/12/12 05:08:18;;;;;;;13.63;5.90;;;;;;;-7.77;100.00;97979.91;4219230;27;20502;-75
2022/12/12 05:10:18;;;;;;;13.88;7.18;;;;;;;-7.76;100.00;97965.38;4219286;27;20139;-75
2022/12/12 05:12:19;;;;;;;19.58;8.23;;;;;;;-7.76;100.00;97978.81;4219522;27;20447;-75
2022/12/12 05:14:20;;;;;;;12.38;6.43;;;;;;;-7.75;100.00;97982.31;4219014;28;20051;-75
2022/12/12 05:16:28;;;;;;;19.33;7.20;;;;;;;-7.73;100.00;97974.78;4217152;27;20055;-75
2022/12/12 05:18:29;;;;;;;16.67;8.13;;;;;;;-7.73;100.00;97969.41;4220327;28;20094;-75
2022/12/12 05:20:30;;;;;;;14.43;7.20;;;;;;;-7.82;100.00;97977.19;4209525;28;20082;-75
2022/12/12 05:22:30;;;;;;;17.15;10.82;;;;;;;-7.94;100.00;97974.00;4218857;28;20081;-76
2022/12/12 05:24:30;;;;;;;21.67;11.45;;;;;;;-7.94;100.00;97977.50;4219387;28;20115;-75
2022/12/12 05:26:33;;;;;;;13.57;8.23;;;;;;;-7.85;100.00;97979.63;4220010;28;20035;-75
2022/12/12 05:28:33;;;;;;;20.90;9.50;;;;;;;-7.82;100.00;97989.84;4219523;27;20052;-75
2022/12/12 05:30:34;;;;;;;19.42;8.60;;;;;;;-7.77;100.00;97989.84;4217902;27;20047;-75
2022/12/12 05:32:34;;;;;;;15.85;8.93;;;;;;;-7.72;100.00;97982.56;4218454;28;20048;-75
2022/12/12 05:34:34;;;;;;;15.57;7.95;;;;;;;-7.68;100.00;97988.19;4219465;28;20441;-76
2022/12/12 05:36:35;;;;;;;17.45;8.10;;;;;;;-7.65;100.00;97979.59;4220291;27;20475;-75
2022/12/12 05:38:35;;;;;;;16.77;8.07;;;;;;;-7.61;100.00;97986.03;4218180;27;20047;-75
2022/12/12 05:40:35;;;;;;;19.67;7.85;;;;;;;-7.60;100.00;97984.97;4218743;28;20046;-75
2022/12/12 05:42:36;;;;;;;16.95;7.38;;;;;;;-7.55;100.00;97987.63;4218465;28;20122;-75
2022/12/12 05:44:36;;;;;;;13.13;6.45;;;;;;;-7.53;100.00;97996.22;4217659;27;20555;-75
2022/12/12 05:46:36;;;;;;;15.48;7.78;;;;;;;-7.53;100.00;97996.22;4219464;27;20062;-75
2022/12/12 05:48:37;;;;;;;17.15;7.35;;;;;;;-7.55;100.00;97981.44;4219293;27;20577;-76
2022/12/12 05:50:37;;;;;;;17.70;8.10;;;;;;;-7.55;100.00;97989.50;4218374;27;20036;-75
2022/12/12 05:52:37;;;;;;;17.38;7.43;;;;;;;-7.56;100.00;97993.28;4218183;28;20100;-75
2022/12/12 05:54:39;;;;;;;17.50;7.80;;;;;;;-7.63;100.00;97991.66;4218356;28;20035;-76
2022/12/12 05:56:39;;;;;;;17.58;8.65;;;;;;;-7.67;100.00;97992.50;4128636;27;20486;-74
2022/12/12 05:58:40;;;;;;;16.45;7.72;;;;;;;-7.76;100.00;97981.50;4213456;27;20067;-74
2022/12/12 06:00:41;;;;;;;16.35;8.07;;;;;;;-7.83;100.00;97993.59;4219479;27;20035;-74
2022/12/12 06:02:41;;;;;;;20.88;8.57;;;;;;;-7.91;100.00;97989.56;4218222;27;20151;-74
2022/12/12 06:04:42;;;;;;;18.10;8.38;;;;;;;-7.95;100.00;97985.81;4217969;27;20394;-74
2022/12/12 06:06:42;;;;;;;22.02;9.77;;;;;;;-7.99;100.00;97990.91;4217886;27;20036;-75
2022/12/12 06:08:42;;;;;;;21.05;8.32;;;;;;;-8.02;100.00;97988.78;4218297;28;20050;-74
2022/12/12 06:10:44;;;;;;;16.90;8.07;;;;;;;-8.00;100.00;97996.56;4216859;28;20105;-74
2022/12/12 06:12:44;;;;;;;21.10;8.43;;;;;;;-7.98;100.00;97999.78;4216974;28;20047;-74
2022/12/12 06:14:45;;;;;;;23.00;10.10;;;;;;;-7.99;100.00;98001.66;4219335;28;20043;-74
2022/12/12 06:16:45;;;;;;;18.88;8.07;;;;;;;-7.98;100.00;97997.91;4218541;27;20169;-74
2022/12/12 06:18:53;;;;;;;23.27;10.70;;;;;;;-7.99;100.00;97993.59;4219437;28;20071;-74
2022/12/12 06:21:04;;;;;;;21.65;10.93;;;;;;;-7.93;100.00;97997.09;4217285;28;20449;-75
2022/12/12 06:23:05;;;;;;;18.17;8.68;;;;;;;-7.92;100.00;97991.47;4217946;28;20039;-74
2022/12/12 06:25:06;;;;;;;18.55;7.72;;;;;;;-7.90;100.00;97995.75;4215642;27;20046;-74
2022/12/12 06:27:07;;;;;;;15.77;7.03;;;;;;;-7.88;100.00;97990.91;4215602;27;20038;-74
2022/12/12 06:29:07;;;;;;;14.98;7.25;;;;;;;-7.93;100.00;97995.22;4217585;27;20066;-74
2022/12/12 06:31:08;;;;;;;15.25;7.50;;;;;;;-7.92;100.00;97998.72;4219364;27;20510;-74
2022/12/12 06:33:09;;;;;;;17.58;7.85;;;;;;;-7.87;100.00;98000.56;4216930;27;20182;-74
2022/12/12 06:35:10;;;;;;;15.55;6.88;;;;;;;-7.84;100.00;98000.84;4218633;28;20402;-74
2022/12/12 06:37:10;;;;;;;14.10;7.13;;;;;;;-7.86;100.00;98003.00;4219318;28;20035;-74
2022/12/12 06:39:10;;;;;;;15.48;7.03;;;;;;;-7.93;100.00;98005.97;4217693;28;20061;-74
2022/12/12 06:41:13;;;;;;;14.85;6.75;;;;;;;-7.85;100.00;98011.88;4218462;27;20050;-74
2022/12/12 06:43:14;;;;;;;15.95;7.07;;;;;;;-7.82;100.00;98019.38;4217788;28;20433;-74
2022/12/12 06:45:15;;;;;;;16.90;8.00;;;;;;;-7.87;100.00;98016.69;4218640;28;20040;-74
2022/12/12 06:47:15;;;;;;;18.05;7.32;;;;;;;-7.93;100.00;98014.00;4217489;27;20475;-74
2022/12/12 06:49:15;;;;;;;15.43;6.88;;;;;;;-7.97;100.00;98012.94;4217865;28;20482;-74
2022/12/12 06:51:19;;;;;;;12.13;6.10;;;;;;;-7.99;100.00;98011.59;4219547;27;20560;-74
2022/12/12 06:53:19;;;;;;;11.77;5.22;;;;;;;-7.92;100.00;98021.00;4216453;27;20421;-74
2022/12/12 06:55:20;;;;;;;14.82;7.13;;;;;;;-7.93;100.00;98024.75;4218971;27;20043;-74
2022/12/12 06:57:20;;;;;;;15.65;6.57;;;;;;;-7.97;100.00;98014.81;4218680;28;20044;-74
2022/12/12 06:59:20;;;;;;;10.30;6.30;;;;;;;-7.99;100.00;98031.19;4218515;28;20543;-74
2022/12/12 07:01:22;;;;;;;12.25;6.10;;;;;;;-8.03;100.00;98015.88;4219491;28;20407;-74
2022/12/12 07:03:22;;;;;;;15.90;6.82;;;;;;;-8.00;100.00;98024.22;4217924;28;20853;-74
2022/12/12 07:05:23;;;;;;;15.95;8.05;;;;;;;-8.02;100.00;98029.06;4219458;27;20191;-74
2022/12/12 07:07:23;;;;;;;25.60;12.23;;;;;;;-7.99;100.00;98030.38;4218072;27;20043;-74
2022/12/12 07:09:23;;;;;;;14.20;8.75;;;;;;;-7.94;100.00;98035.78;4218266;28;20032;-74
2022/12/12 07:11:25;;;;;;;15.57;7.95;;;;;;;-7.98;100.00;98027.44;4218284;27;20122;-74
2022/12/12 07:13:26;;;;;;;17.17;7.95;;;;;;;-8.04;100.00;98028.50;4218447;28;20127;-74
2022/12/12 07:15:26;;;;;;;16.98;9.25;;;;;;;-8.07;100.00;98030.94;4216878;27;20082;-74
2022/12/12 07:17:26;;;;;;;13.50;7.47;;;;;;;-8.13;100.00;98026.63;4218401;28;20349;-74
2022/12/12 07:19:26;;;;;;;14.75;7.53;;;;;;;-8.13;100.00;98029.31;4219273;27;20422;-74
2022/12/12 07:21:27;;;;;;;15.48;7.93;;;;;;;-8.12;100.00;98036.28;4217654;27;20070;-74
2022/12/12 07:23:27;;;;;;;19.00;8.52;;;;;;;-8.13;100.00;98032.00;4216402;28;20044;-74
2022/12/12 07:25:27;;;;;;;12.40;6.10;;;;;;;-8.12;100.00;98037.09;4218227;28;20138;-74
2022/12/12 07:27:28;;;;;;;12.38;6.15;;;;;;;-8.09;100.00;98033.09;4219036;27;20190;-74
2022/12/12 07:29:28;;;;;;;13.18;6.22;;;;;;;-8.17;100.00;98034.41;4219182;27;20051;-74
2022/12/12 07:31:28;;;;;;;16.02;6.50;;;;;;;-8.18;100.00;98043.53;4220914;27;20058;-74
2022/12/12 07:33:29;;;;;;;15.63;7.65;;;;;;;-8.18;100.00;98043.53;4220903;27;20055;-74
2022/12/12 07:35:29;;;;;;;14.32;6.25;;;;;;;-8.12;100.00;98041.66;4221301;28;20038;-74
2022/12/12 07:37:29;;;;;;;14.75;6.55;;;;;;;-8.15;100.00;98047.56;4221194;27;20089;-74
2022/12/12 07:39:31;;;;;;;14.30;7.13;;;;;;;-8.12;100.00;98050.50;4221821;27;20555;-74
2022/12/12 07:41:32;;;;;;;13.68;6.88;;;;;;;-8.06;100.00;98046.75;4221272;27;20039;-74
2022/12/12 07:43:37;;;;;;;15.48;7.75;;;;;;;-8.05;100.00;98044.88;4219636;28;20056;-74
2022/12/12 07:45:38;;;;;;;17.25;7.45;;;;;;;-7.98;100.00;98043.53;4221137;27;20039;-74
2022/12/12 07:47:38;;;;;;;12.20;6.90;;;;;;;-7.99;100.00;98046.50;4221609;27;20138;-74
2022/12/12 07:49:38;;;;;;;16.42;7.60;;;;;;;-8.00;100.00;98040.31;4220748;28;20046;-74
2022/12/12 07:51:38;;;;;;;14.43;7.18;;;;;;;-7.96;100.00;98045.94;4220980;28;20086;-74
2022/12/12 07:53:39;;;;;;;19.27;10.35;;;;;;;-7.99;100.00;98047.31;4220879;27;20089;-74
2022/12/12 07:55:40;;;;;;;16.15;7.80;;;;;;;-8.01;100.00;98041.41;4220937;27;20066;-74
2022/12/12 07:57:40;;;;;;;16.25;8.88;;;;;;;-7.94;100.00;98047.31;4221395;28;20058;-74
2022/12/12 07:59:40;;;;;;;17.83;9.45;;;;;;;-7.96;100.00;98057.50;4221006;27;20630;-74
2022/12/12 08:01:40;;;;;;;22.55;10.55;;;;;;;-8.02;100.00;98063.97;4221546;27;20039;-74
2022/12/12 08:03:43;;;;;;;16.50;9.18;;;;;;;-8.01;100.00;98065.56;4220299;27;20436;-74
2022/12/12 08:05:43;;;;;;;15.73;7.07;;;;;;;-7.98;100.00;98069.59;4221061;28;20143;-74
2022/12/12 08:07:43;;;;;;;19.48;8.38;;;;;;;-7.97;100.00;98082.75;4220805;28;20439;-74
2022/12/12 08:09:44;;;;;;;16.98;8.02;;;;;;;-7.92;100.00;98071.22;4221238;28;20039;-74
2022/12/12 08:11:44;;;;;;;15.23;7.18;;;;;;;-7.88;100.00;98074.94;4220678;28;20075;-74
2022/12/12 08:13:45;;;;;;;17.83;7.97;;;;;;;-7.81;100.00;98077.38;4219956;27;20474;-74
2022/12/12 08:15:45;;;;;;;13.40;7.30;;;;;;;-7.80;100.00;98077.09;4221336;27;20048;-74
2022/12/12 08:17:46;;;;;;;14.43;7.03;;;;;;;-7.76;100.00;98088.94;4219595;28;20419;-74
2022/12/12 08:19:46;;;;;;;14.52;6.15;;;;;;;-7.68;100.00;98079.53;4221116;28;20047;-74
2022/12/12 08:21:46;;;;;;;13.90;6.38;;;;;;;-7.59;100.00;98085.97;4220680;27;20107;-74
2022/12/12 08:23:47;;;;;;;13.50;5.47;;;;;;;-7.59;100.00;98088.66;4219696;27;20112;-74
2022/12/12 08:25:47;;;;;;;12.23;5.95;;;;;;;-7.53;100.00;98095.66;4221155;27;20728;-74
2022/12/12 08:27:47;;;;;;;19.58;8.55;;;;;;;-7.44;100.00;98094.03;4219883;27;20436;-74
2022/12/12 08:29:51;;;;;;;21.45;10.40;;;;;;;-7.39;100.00;98091.31;4221118;27;20042;-74
2022/12/12 08:31:51;;;;;;;18.20;10.10;;;;;;;-7.32;100.00;98091.03;4220951;27;20093;-74
2022/12/12 08:33:52;;;;;;;16.27;9.07;;;;;;;-7.31;100.00;98089.16;4219761;27;20073;-74
2022/12/12 08:35:52;;;;;;;19.88;8.10;;;;;;;-7.25;100.00;98085.38;4220890;27;20072;-74
2022/12/12 08:37:53;;;;;;;17.02;7.78;;;;;;;-7.24;100.00;98095.88;4218735;27;20502;-74
2022/12/12 08:39:53;;;;;;;13.05;6.75;;;;;;;-7.20;100.00;98088.06;4219198;28;20048;-74
2022/12/12 08:41:54;;;;;;;14.10;6.57;;;;;;;-7.15;100.00;98098.81;4220575;27;20270;-74
2022/12/12 08:43:54;;;;;;;12.70;6.40;;;;;;;-7.11;100.00;98094.50;4220183;28;20263;-74
2022/12/12 08:45:59;;;;;;;13.60;7.50;;;;;;;-7.07;100.00;98092.88;4219702;27;20048;-74
2022/12/12 08:48:00;;;;;;;22.40;6.68;;;;;;;-7.07;100.00;98093.66;4220245;27;20278;-74
2022/12/12 08:50:00;;;;;;;13.18;6.75;;;;;;;-7.03;100.00;98091.25;4220997;27;20046;-74
2022/12/12 08:52:04;;;;;;;26.00;9.38;;;;;;;-7.02;100.00;98097.44;4219976;28;20315;-74
2022/12/12 08:54:05;;;;;;;21.55;9.98;;;;;;;-7.04;100.00;98100.38;4218861;27;20112;-74
2022/12/12 08:56:06;;;;;;;20.33;8.63;;;;;;;-7.02;100.00;98092.88;4220698;28;20363;-74
2022/12/12 08:58:06;;;;;;;25.80;9.02;;;;;;;-6.97;100.00;98094.72;4220782;27;20032;-73
2022/12/12 09:00:07;;;;;;;29.83;11.95;;;;;;;-6.86;100.00;98097.13;4219780;28;20035;-74
2022/12/12 09:02:11;;;;;;;23.10;10.20;;;;;;;-6.90;100.00;98097.94;4219841;28;20057;-74
2022/12/12 09:04:11;;;;;;;19.08;8.60;;;;;;;-6.85;100.00;98106.00;4219867;27;20042;-74
2022/12/12 09:06:11;;;;;;;21.98;10.35;;;;;;;-6.84;100.00;98108.41;4220715;27;20358;-74
2022/12/12 09:08:12;;;;;;;25.17;11.80;;;;;;;-6.81;100.00;98107.84;4219025;27;20662;-74
2022/12/12 09:10:13;;;;;;;24.00;10.45;;;;;;;-6.75;100.00;98113.22;4219102;27;20059;-74
2022/12/12 09:12:13;;;;;;;17.02;8.32;;;;;;;-6.66;100.00;98111.56;4220074;28;20078;-74
2022/12/12 09:14:13;;;;;;;17.70;8.48;;;;;;;-6.60;100.00;98113.16;4218942;28;20114;-74
2022/12/12 09:16:14;;;;;;;19.45;7.78;;;;;;;-6.51;100.00;98111.50;4219414;28;20507;-74
2022/12/12 09:18:15;;;;;;;12.52;6.70;;;;;;;-6.46;100.00;98116.84;4220080;28;20036;-74
2022/12/12 09:20:16;;;;;;;21.73;8.20;;;;;;;-6.33;100.00;98123.53;4218965;28;20038;-74
2022/12/12 09:22:16;;;;;;;12.88;5.97;;;;;;;-6.29;100.00;98114.63;4219535;27;20146;-74
2022/12/12 09:24:17;;;;;;;12.68;6.53;;;;;;;-6.24;100.00;98119.97;4218568;28;20110;-74
2022/12/12 09:26:17;;;;;;;13.30;6.90;;;;;;;-6.18;100.00;98119.97;4219147;28;20356;-74
2022/12/12 09:28:19;;;;;;;12.52;6.50;;;;;;;-6.14;100.00;98113.72;4219529;27;20801;-74
2022/12/12 09:30:20;;;;;;;17.65;7.28;;;;;;;-6.07;100.00;98124.19;4219509;28;20385;-74
2022/12/12 09:32:21;;;;;;;12.40;5.85;;;;;;;-5.99;100.00;98118.22;4219602;27;20051;-74
2022/12/12 09:34:21;;;;;;;15.55;7.15;;;;;;;-6.02;100.00;98121.47;4218495;27;20587;-74
2022/12/12 09:36:22;;;;;;;14.55;7.68;;;;;;;-5.97;100.00;98116.84;4219286;27;20489;-74
2022/12/12 09:38:22;;;;;;;15.55;7.47;;;;;;;-5.97;100.00;98106.06;4219661;28;20123;-74
2022/12/12 09:40:29;;;;;;;14.40;7.65;;;;;;;-5.85;100.00;98121.06;4219862;27;20064;-73
2022/12/12 09:42:32;;;;;;;16.42;7.57;;;;;;;-5.80;100.00;98121.81;4218507;27;20047;-74
2022/12/12 09:44:32;;;;;;;15.90;7.40;;;;;;;-5.76;100.00;98127.47;4219587;28;20501;-74
2022/12/12 09:46:41;;;;;;;16.85;8.35;;;;;;;-5.71;100.00;98122.03;4219668;27;20040;-74